createdAt,value
2022-08-03T00:01:44.549Z,8.30
2022-08-03T00:04:12.516Z,8.50
2022-08-03T00:06:40.348Z,8.10
2022-08-03T00:09:09.022Z,7.30
2022-08-03T00:11:36.936Z,8.00
2022-08-03T00:14:06.183Z,8.30
2022-08-03T00:16:34.451Z,7.70
2022-08-03T00:19:02.385Z,8.50
2022-08-03T00:21:30.272Z,7.60
2022-08-03T00:23:58.147Z,8.40
2022-08-03T00:26:25.877Z,7.90
2022-08-03T00:28:53.742Z,7.90
2022-08-03T00:31:35.246Z,8.30
2022-08-03T00:34:08.152Z,8.40
2022-08-03T00:36:36.334Z,10.00
2022-08-03T00:39:04.268Z,10.10
2022-08-03T00:41:32.271Z,9.60
2022-08-03T00:44:00.178Z,10.20
2022-08-03T00:46:27.911Z,9.80
2022-08-03T00:48:55.698Z,9.30
2022-08-03T00:51:24.415Z,9.60
2022-08-03T00:53:52.162Z,8.70
2022-08-03T00:56:19.868Z,8.60
2022-08-03T00:58:47.827Z,9.20
2022-08-03T01:01:16.331Z,8.90
2022-08-03T01:03:45.737Z,7.40
2022-08-03T01:06:29.231Z,7.70
2022-08-03T01:09:21.335Z,7.70
2022-08-03T01:12:07.887Z,8.10
2022-08-03T01:14:47.222Z,7.40
2022-08-03T01:17:28.999Z,7.50
2022-08-03T01:20:02.953Z,8.20
2022-08-03T01:22:57.978Z,7.70
2022-08-03T01:25:54.238Z,7.80
2022-08-03T01:29:11.068Z,8.00
2022-08-03T01:33:00.780Z,8.00
2022-08-03T01:35:14.401Z,8.30
2022-08-03T01:37:47.942Z,8.10
2022-08-03T01:40:17.587Z,7.80
2022-08-03T01:42:47.872Z,7.80
2022-08-03T01:45:20.002Z,7.10
2022-08-03T01:47:49.832Z,7.30
2022-08-03T01:50:22.841Z,7.80
2022-08-03T01:52:52.092Z,8.00
2022-08-03T01:55:21.899Z,8.30
2022-08-03T01:58:05.163Z,8.30
2022-08-03T02:00:38.651Z,8.20
2022-08-03T02:03:08.780Z,7.30
2022-08-03T02:05:39.866Z,7.80
2022-08-03T02:08:10.784Z,7.50
2022-08-03T02:10:41.490Z,8.40
2022-08-03T02:13:10.733Z,7.50
2022-08-03T02:15:39.375Z,8.50
2022-08-03T02:18:10.009Z,7.20
2022-08-03T02:20:40.039Z,7.90
2022-08-03T02:23:08.594Z,7.10
2022-08-03T02:25:44.791Z,7.40
2022-08-03T02:28:18.517Z,7.50
2022-08-03T02:30:51.863Z,7.40
2022-08-03T02:33:31.820Z,6.60
2022-08-03T02:36:01.257Z,7.40
2022-08-03T02:38:33.800Z,7.50
2022-08-03T02:41:07.401Z,7.40
2022-08-03T02:43:57.653Z,7.60
2022-08-03T02:46:37.855Z,7.60
2022-08-03T02:49:40.929Z,6.90
2022-08-03T02:51:56.722Z,7.70
2022-08-03T02:54:26.682Z,7.70
2022-08-03T02:56:56.964Z,7.70
2022-08-03T02:59:25.758Z,8.20
2022-08-03T03:01:55.201Z,7.10
2022-08-03T03:04:27.580Z,7.30
2022-08-03T03:07:04.398Z,7.40
2022-08-03T03:09:41.916Z,7.40
2022-08-03T03:12:13.234Z,7.40
2022-08-03T03:14:41.370Z,7.70
2022-08-03T03:17:11.536Z,8.10
2022-08-03T03:19:41.053Z,6.80
2022-08-03T03:22:09.775Z,8.00
2022-08-03T03:24:39.914Z,7.50
2022-08-03T03:27:08.179Z,7.40
2022-08-03T03:29:39.366Z,7.10
2022-08-03T03:32:09.138Z,7.10
2022-08-03T03:34:41.158Z,7.60
2022-08-03T03:37:12.385Z,7.80
2022-08-03T03:39:40.306Z,7.70
2022-08-03T03:42:08.263Z,7.30
2022-08-03T03:44:36.614Z,7.80
2022-08-03T03:47:05.020Z,8.00
2022-08-03T03:49:33.007Z,7.70
2022-08-03T03:52:00.813Z,7.50
2022-08-03T03:54:43.009Z,7.00
2022-08-03T03:57:13.669Z,7.90
2022-08-03T03:59:42.635Z,7.60
2022-08-03T04:02:12.430Z,8.10
2022-08-03T04:04:58.907Z,8.30
2022-08-03T04:07:46.139Z,7.30
2022-08-03T04:10:38.880Z,8.50
2022-08-03T04:13:12.392Z,7.80
2022-08-03T04:15:41.484Z,8.30
2022-08-03T04:18:13.973Z,8.10
2022-08-03T04:20:47.818Z,8.10
2022-08-03T04:23:19.305Z,8.20
2022-08-03T04:25:51.750Z,8.40
2022-08-03T04:28:30.871Z,8.60
2022-08-03T04:31:02.485Z,7.90
2022-08-03T04:33:33.602Z,7.70
2022-08-03T04:36:07.167Z,7.30
2022-08-03T04:38:44.180Z,7.50
2022-08-03T04:41:13.191Z,7.30
2022-08-03T04:43:41.979Z,7.80
2022-08-03T04:46:11.444Z,7.20
2022-08-03T04:48:43.532Z,7.60
2022-08-03T04:51:13.648Z,8.20
2022-08-03T04:53:43.402Z,8.30
2022-08-03T04:56:11.170Z,7.80
2022-08-03T04:58:39.756Z,8.50
2022-08-03T05:01:07.770Z,7.80
2022-08-03T05:03:35.506Z,8.40
2022-08-03T05:06:09.741Z,7.70
2022-08-03T05:08:45.903Z,8.00
2022-08-03T05:11:16.355Z,7.20
2022-08-03T05:13:47.046Z,8.20
2022-08-03T05:16:15.270Z,7.20
2022-08-03T05:18:43.565Z,7.30
2022-08-03T05:21:14.211Z,7.00
2022-08-03T05:23:41.911Z,7.10
2022-08-03T05:26:11.913Z,7.30
2022-08-03T05:28:40.453Z,7.30
2022-08-03T05:31:19.568Z,6.90
2022-08-03T05:33:49.142Z,7.30
2022-08-03T05:36:16.958Z,7.00
2022-08-03T05:38:44.914Z,7.10
2022-08-03T05:41:22.765Z,6.10
2022-08-03T05:43:55.591Z,6.40
2022-08-03T05:46:23.714Z,6.80
2022-08-03T05:48:51.659Z,6.10
2022-08-03T05:51:19.656Z,6.60
2022-08-03T05:53:47.413Z,6.20
2022-08-03T05:56:16.620Z,6.60
2022-08-03T05:58:46.952Z,6.60
2022-08-03T06:01:17.065Z,6.30
2022-08-03T06:03:46.386Z,6.30
2022-08-03T06:06:15.063Z,6.30
2022-08-03T06:08:44.398Z,6.10
2022-08-03T06:11:13.152Z,6.00
2022-08-03T06:13:41.304Z,5.60
2022-08-03T06:16:10.114Z,6.50
2022-08-03T06:18:38.822Z,6.10
2022-08-03T06:21:14.495Z,6.30
2022-08-03T06:23:53.905Z,6.20
2022-08-03T06:26:28.533Z,6.20
2022-08-03T06:28:56.674Z,5.90
2022-08-03T06:31:33.121Z,5.20
2022-08-03T06:34:33.715Z,5.40
2022-08-03T06:36:58.513Z,5.60
2022-08-03T06:39:30.215Z,5.90
2022-08-03T06:41:58.262Z,5.50
2022-08-03T06:44:26.263Z,4.80
2022-08-03T06:46:54.174Z,4.90
2022-08-03T06:49:22.233Z,4.90
2022-08-03T06:52:03.463Z,4.80
2022-08-03T06:54:34.519Z,4.50
2022-08-03T06:57:02.359Z,4.90
2022-08-03T07:00:11.053Z,4.70
2022-08-03T07:02:21.480Z,4.60
2022-08-03T07:04:49.807Z,4.40
2022-08-03T07:07:17.931Z,4.50
2022-08-03T07:09:56.963Z,5.50
2022-08-03T07:12:28.155Z,5.50
2022-08-03T07:15:00.715Z,5.20
2022-08-03T07:17:31.311Z,5.20
2022-08-03T07:20:00.444Z,4.70
2022-08-03T07:22:28.562Z,4.60
2022-08-03T07:24:56.855Z,4.80
2022-08-03T07:27:27.144Z,4.60
2022-08-03T07:29:55.558Z,4.50
2022-08-03T07:32:24.744Z,4.90
2022-08-03T07:34:55.795Z,4.60
2022-08-03T07:37:26.228Z,4.00
2022-08-03T07:39:53.884Z,4.20
2022-08-03T07:42:23.436Z,4.30
2022-08-03T07:44:51.352Z,3.80
2022-08-03T07:47:22.503Z,3.80
2022-08-03T07:49:50.922Z,3.80
2022-08-03T07:52:37.637Z,3.80
2022-08-03T07:55:07.058Z,3.70
2022-08-03T07:57:35.363Z,3.40
2022-08-03T08:00:06.669Z,3.50
2022-08-03T08:02:34.600Z,3.50
2022-08-03T08:05:05.776Z,3.70
2022-08-03T08:07:34.345Z,3.30
2022-08-03T08:10:02.245Z,3.60
2022-08-03T08:12:30.074Z,4.20
2022-08-03T08:14:57.975Z,3.10
2022-08-03T08:17:25.802Z,3.40
2022-08-03T08:19:53.781Z,3.60
2022-08-03T08:22:30.283Z,3.70
2022-08-03T08:25:01.018Z,3.50
2022-08-03T08:28:22.220Z,3.60
2022-08-03T08:30:20.256Z,3.60
2022-08-03T08:32:49.540Z,3.70
2022-08-03T08:35:18.455Z,3.20
2022-08-03T08:37:50.900Z,3.80
2022-08-03T08:40:22.912Z,3.20
2022-08-03T08:42:58.564Z,3.30
2022-08-03T08:45:27.700Z,3.50
2022-08-03T08:48:01.826Z,4.00
2022-08-03T08:50:32.040Z,3.20
2022-08-03T08:53:03.878Z,2.90
2022-08-03T08:55:58.406Z,3.20
2022-08-03T08:58:22.606Z,3.30
2022-08-03T09:00:51.242Z,3.20
2022-08-03T09:03:29.164Z,2.80
2022-08-03T09:06:03.320Z,3.20
2022-08-03T09:08:32.470Z,3.20
2022-08-03T09:11:00.786Z,3.40
2022-08-03T09:13:30.572Z,3.30
2022-08-03T09:16:12.509Z,3.30
2022-08-03T09:18:45.895Z,2.70
2022-08-03T09:21:33.460Z,2.90
2022-08-03T09:24:07.013Z,5.60
2022-08-03T09:26:38.422Z,3.20
2022-08-03T09:29:15.027Z,2.80
2022-08-03T09:31:46.129Z,3.00
2022-08-03T09:34:16.548Z,3.10
2022-08-03T09:36:46.636Z,3.10
2022-08-03T09:39:19.664Z,3.50
2022-08-03T09:42:14.939Z,3.20
2022-08-03T09:44:46.493Z,3.30
2022-08-03T09:47:28.416Z,3.40
2022-08-03T09:50:02.401Z,3.30
2022-08-03T09:52:38.614Z,2.70
2022-08-03T09:56:33.009Z,2.80
2022-08-03T09:58:10.545Z,3.10
2022-08-03T10:00:59.091Z,3.10
2022-08-03T10:03:29.933Z,3.30
2022-08-03T10:05:59.939Z,3.10
2022-08-03T10:08:28.116Z,4.30
2022-08-03T10:10:57.989Z,3.00
2022-08-03T10:13:25.904Z,2.60
2022-08-03T10:16:23.664Z,2.90
2022-08-03T10:18:41.286Z,2.60
2022-08-03T10:21:16.169Z,3.50
2022-08-03T10:23:43.932Z,2.80
2022-08-03T10:26:16.502Z,2.60
2022-08-03T10:28:50.389Z,2.80
2022-08-03T10:31:20.607Z,3.20
2022-08-03T10:33:53.277Z,2.90
2022-08-03T10:36:24.565Z,2.80
2022-08-03T10:38:53.848Z,2.70
2022-08-03T10:41:23.357Z,2.30
2022-08-03T10:43:58.756Z,2.60
2022-08-03T10:46:27.733Z,2.20
2022-08-03T10:48:56.912Z,2.80
2022-08-03T10:51:29.166Z,3.00
2022-08-03T10:53:56.901Z,2.20
2022-08-03T10:56:51.804Z,1.90
2022-08-03T10:59:40.249Z,3.70
2022-08-03T11:02:10.774Z,2.90
2022-08-03T11:04:38.497Z,2.40
2022-08-03T11:07:18.577Z,2.40
2022-08-03T11:09:48.698Z,1.90
2022-08-03T11:12:28.438Z,2.30
2022-08-03T11:15:06.030Z,2.20
2022-08-03T11:17:46.270Z,2.30
2022-08-03T11:20:58.681Z,2.30
2022-08-03T11:24:02.662Z,2.60
2022-08-03T11:26:34.778Z,2.20
2022-08-03T11:29:29.081Z,2.30
2022-08-03T11:31:57.566Z,2.30
2022-08-03T11:34:26.419Z,2.30
2022-08-03T11:37:22.976Z,2.20
2022-08-03T11:39:54.803Z,2.50
2022-08-03T11:42:22.561Z,2.30
2022-08-03T11:44:51.693Z,2.40
2022-08-03T11:47:21.806Z,2.10
2022-08-03T11:49:51.408Z,2.30
2022-08-03T11:52:27.216Z,2.20
2022-08-03T11:54:57.275Z,2.40
2022-08-03T11:59:16.434Z,2.30
2022-08-03T12:00:23.620Z,2.30
2022-08-03T12:02:58.897Z,2.50
2022-08-03T12:05:52.026Z,2.60
2022-08-03T12:08:32.623Z,2.70
2022-08-03T12:11:05.756Z,2.40
2022-08-03T12:14:45.267Z,2.70
2022-08-03T12:16:31.358Z,2.90
2022-08-03T12:19:01.414Z,2.70
2022-08-03T12:21:30.000Z,2.30
2022-08-03T12:24:04.088Z,2.60
2022-08-03T12:26:59.506Z,2.70
2022-08-03T12:29:27.828Z,2.60
2022-08-03T12:31:56.313Z,2.70
2022-08-03T12:34:24.307Z,2.40
2022-08-03T12:36:55.920Z,3.00
2022-08-03T12:39:25.637Z,2.70
2022-08-03T12:41:55.306Z,2.60
2022-08-03T12:44:34.798Z,2.80
2022-08-03T12:47:06.888Z,2.60
2022-08-03T12:49:47.986Z,2.90
2022-08-03T12:52:17.900Z,3.20
2022-08-03T12:54:59.085Z,3.20
2022-08-03T12:57:41.245Z,2.90
2022-08-03T13:00:28.681Z,2.90
2022-08-03T13:05:55.736Z,2.80
2022-08-03T13:08:25.718Z,2.80
2022-08-03T13:10:53.739Z,3.00
2022-08-03T13:13:40.576Z,3.10
2022-08-03T13:16:08.251Z,3.40
2022-08-03T13:18:36.087Z,3.40
2022-08-03T13:21:04.071Z,3.20
2022-08-03T13:23:32.108Z,2.90
2022-08-03T13:26:00.103Z,2.70
2022-08-03T13:28:27.811Z,3.00
2022-08-03T13:30:55.674Z,3.00
2022-08-03T13:33:23.517Z,2.50
2022-08-03T13:35:51.436Z,3.10
2022-08-03T13:38:21.615Z,3.10
2022-08-03T13:40:55.036Z,2.80
2022-08-03T13:43:24.133Z,2.60
2022-08-03T13:45:56.548Z,2.90
2022-08-03T13:48:36.966Z,2.80
2022-08-03T13:51:21.689Z,2.70
2022-08-03T13:53:51.492Z,2.70
2022-08-03T13:56:19.445Z,2.90
2022-08-03T13:58:47.193Z,2.80
2022-08-03T14:01:15.017Z,2.80
2022-08-03T14:03:42.910Z,3.10
2022-08-03T14:06:11.469Z,2.70
2022-08-03T14:08:39.265Z,2.90
2022-08-03T14:11:07.409Z,3.80
2022-08-03T14:13:35.412Z,2.70
2022-08-03T14:16:03.213Z,2.60
2022-08-03T14:18:33.956Z,2.60
2022-08-03T14:21:07.359Z,3.10
2022-08-03T14:23:37.914Z,3.00
2022-08-03T14:26:08.217Z,2.80
2022-08-03T14:28:36.579Z,3.60
2022-08-03T14:31:08.382Z,3.20
2022-08-03T14:33:52.714Z,2.90
2022-08-03T14:36:20.559Z,2.50
2022-08-03T14:38:48.530Z,2.60
2022-08-03T14:41:19.820Z,2.70
2022-08-03T14:44:01.612Z,2.80
2022-08-03T14:46:31.250Z,2.40
2022-08-03T14:50:33.697Z,2.70
2022-08-03T14:51:53.452Z,2.70
2022-08-03T14:54:22.953Z,3.10
2022-08-03T14:56:50.978Z,2.50
2022-08-03T14:59:18.692Z,2.70
2022-08-03T15:02:04.799Z,2.40
2022-08-03T15:04:34.817Z,2.40
2022-08-03T15:07:02.545Z,3.60
2022-08-03T15:09:30.426Z,3.00
2022-08-03T15:11:58.358Z,2.90
2022-08-03T15:14:32.309Z,2.70
2022-08-03T15:17:01.647Z,2.80
2022-08-03T15:20:01.999Z,4.00
2022-08-03T15:22:20.513Z,2.80
2022-08-03T15:24:53.950Z,2.90
2022-08-03T15:27:22.723Z,2.70
2022-08-03T15:30:07.396Z,3.10
2022-08-03T15:32:38.087Z,2.80
2022-08-03T15:35:06.377Z,2.50
2022-08-03T15:37:34.135Z,2.20
2022-08-03T15:40:02.396Z,2.80
2022-08-03T15:42:31.352Z,3.00
2022-08-03T15:44:59.601Z,2.90
2022-08-03T15:47:27.683Z,2.70
2022-08-03T15:49:55.594Z,2.50
2022-08-03T15:52:23.340Z,2.70
2022-08-03T15:54:51.371Z,3.30
2022-08-03T15:57:20.121Z,2.50
2022-08-03T15:59:48.166Z,2.80
2022-08-03T16:02:16.255Z,2.60
2022-08-03T16:04:44.017Z,3.00
2022-08-03T16:07:12.886Z,2.70
2022-08-03T16:09:45.652Z,2.70
2022-08-03T16:12:16.315Z,3.00
2022-08-03T16:14:53.772Z,2.40
2022-08-03T16:17:23.700Z,2.80
2022-08-03T16:19:54.097Z,2.80
2022-08-03T16:22:24.755Z,2.40
2022-08-03T16:24:54.359Z,2.60
2022-08-03T16:27:37.088Z,2.50
2022-08-03T16:30:12.939Z,2.70
2022-08-03T16:32:40.669Z,3.10
2022-08-03T16:35:08.906Z,2.60
2022-08-03T16:37:38.543Z,3.00
2022-08-03T16:40:17.403Z,2.40
2022-08-03T16:42:47.744Z,2.70
2022-08-03T16:45:15.536Z,2.40
2022-08-03T16:47:43.274Z,3.00
2022-08-03T16:50:17.200Z,2.80
2022-08-03T16:52:48.510Z,2.50
2022-08-03T16:55:42.977Z,2.60
2022-08-03T16:58:05.808Z,2.60
2022-08-03T17:00:41.591Z,2.70
2022-08-03T17:03:25.564Z,2.60
2022-08-03T17:05:54.133Z,2.20
2022-08-03T17:08:27.636Z,2.60
2022-08-03T17:10:56.330Z,2.70
2022-08-03T17:13:39.294Z,2.50
2022-08-03T17:16:10.584Z,2.70
2022-08-03T17:18:47.561Z,2.60
2022-08-03T17:21:17.549Z,2.80
2022-08-03T17:23:57.614Z,2.70
2022-08-03T17:26:30.595Z,2.40
2022-08-03T17:29:11.438Z,2.50
2022-08-03T17:31:48.459Z,2.80
2022-08-03T17:34:19.339Z,3.20
2022-08-03T17:37:05.577Z,2.70
2022-08-03T17:42:31.186Z,2.70
2022-08-03T17:45:03.554Z,2.70
2022-08-03T17:47:41.418Z,2.50
2022-08-03T17:50:23.912Z,2.70
2022-08-03T17:53:14.411Z,2.80
2022-08-03T17:56:44.651Z,3.00
2022-08-03T17:59:16.407Z,2.80
2022-08-03T18:02:41.209Z,2.60
2022-08-03T18:05:18.300Z,2.70
2022-08-03T18:08:01.579Z,2.90
2022-08-03T18:10:36.316Z,2.60
2022-08-03T18:13:30.219Z,3.20
2022-08-03T18:16:06.971Z,3.10
2022-08-03T18:18:43.233Z,3.00
2022-08-03T18:21:17.044Z,2.60
2022-08-03T18:23:50.289Z,4.00
2022-08-03T18:26:20.610Z,3.10
2022-08-03T18:28:53.521Z,3.10
2022-08-03T18:31:59.847Z,4.20
2022-08-03T18:34:32.558Z,3.80
2022-08-03T18:37:07.160Z,3.90
2022-08-03T18:39:49.884Z,4.10
2022-08-03T18:42:19.663Z,3.90
2022-08-03T18:44:54.459Z,3.80
2022-08-03T18:47:27.481Z,4.80
2022-08-03T18:50:36.729Z,4.70
2022-08-03T18:54:02.128Z,4.20
2022-08-03T18:56:53.714Z,4.70
2022-08-03T18:59:29.991Z,4.30
2022-08-03T19:02:06.867Z,4.20
2022-08-03T19:04:52.850Z,4.10
2022-08-03T19:07:27.109Z,4.90
2022-08-03T19:09:59.831Z,4.40
2022-08-03T19:12:39.756Z,4.50
2022-08-03T19:15:13.783Z,5.00
2022-08-03T19:17:53.213Z,4.60
2022-08-03T19:20:24.960Z,4.60
2022-08-03T19:22:55.386Z,4.40
2022-08-03T19:25:34.973Z,4.90
2022-08-03T19:28:06.258Z,4.80
2022-08-03T19:30:38.530Z,5.20
2022-08-03T19:33:09.983Z,4.50
2022-08-03T19:35:52.081Z,4.80
2022-08-03T19:38:28.501Z,4.50
2022-08-03T19:41:01.586Z,5.10
2022-08-03T19:43:49.592Z,5.60
2022-08-03T19:46:30.209Z,5.00
2022-08-03T19:49:15.321Z,6.80
2022-08-03T19:51:58.893Z,5.90
2022-08-03T19:54:53.785Z,6.30
2022-08-03T19:57:28.585Z,6.20
2022-08-03T19:59:57.231Z,6.30
2022-08-03T20:02:26.359Z,6.20
2022-08-03T20:04:57.359Z,6.90
2022-08-03T20:07:27.054Z,7.20
2022-08-03T20:09:56.432Z,7.60
2022-08-03T20:12:27.958Z,8.30
2022-08-03T20:14:58.061Z,7.90
2022-08-03T20:17:54.747Z,7.70
2022-08-03T20:20:19.975Z,8.10
2022-08-03T20:22:52.910Z,8.20
2022-08-03T20:25:37.615Z,7.70
2022-08-03T20:28:14.210Z,7.70
2022-08-03T20:30:47.194Z,7.80
2022-08-03T20:33:18.877Z,10.30
2022-08-03T20:35:49.629Z,8.30
2022-08-03T20:38:19.055Z,8.40
2022-08-03T20:40:48.391Z,8.50
2022-08-03T20:43:17.085Z,9.70
2022-08-03T20:45:59.014Z,8.10
2022-08-03T20:48:37.441Z,9.00
2022-08-03T20:51:19.657Z,13.40
2022-08-03T20:53:57.208Z,12.40
2022-08-03T20:56:43.804Z,12.30
2022-08-03T20:59:19.257Z,11.10
2022-08-03T21:01:47.425Z,10.10
2022-08-03T21:04:15.825Z,9.60
2022-08-03T21:07:00.665Z,10.40
2022-08-03T21:09:41.580Z,10.80
2022-08-03T21:13:08.185Z,12.10
2022-08-03T21:15:05.470Z,17.00
2022-08-03T21:17:40.896Z,20.60
2022-08-03T21:20:11.296Z,14.50
2022-08-03T21:22:43.509Z,18.60
2022-08-03T21:25:14.831Z,14.60
2022-08-03T21:27:43.339Z,20.20
2022-08-03T21:30:12.126Z,12.40
2022-08-03T21:32:43.185Z,12.20
2022-08-03T21:35:12.749Z,9.20
2022-08-03T21:37:41.845Z,13.00
2022-08-03T21:40:12.207Z,12.50
2022-08-03T21:42:44.002Z,12.30
2022-08-03T21:45:17.308Z,11.60
2022-08-03T21:47:47.396Z,9.60
2022-08-03T21:50:15.905Z,8.90
2022-08-03T21:52:47.895Z,9.90
2022-08-03T21:55:20.423Z,11.00
2022-08-03T21:57:53.151Z,10.90
2022-08-03T22:00:23.452Z,10.50
2022-08-03T22:02:55.351Z,9.80
2022-08-03T22:05:42.733Z,10.40
2022-08-03T22:08:14.920Z,10.30
2022-08-03T22:10:46.699Z,9.70
2022-08-03T22:13:21.932Z,9.10
2022-08-03T22:16:05.770Z,8.70
2022-08-03T22:18:40.308Z,9.00
2022-08-03T22:21:11.687Z,9.10
2022-08-03T22:23:48.528Z,8.60
2022-08-03T22:26:34.679Z,9.40
2022-08-03T22:29:08.058Z,8.80
2022-08-03T22:31:58.472Z,8.70
2022-08-03T22:34:27.168Z,8.40
2022-08-03T22:37:01.304Z,8.90
2022-08-03T22:39:30.091Z,8.70
2022-08-03T22:42:01.556Z,8.80
2022-08-03T22:44:29.768Z,9.60
2022-08-03T22:46:58.522Z,8.60
2022-08-03T22:49:28.353Z,8.20
2022-08-03T22:51:56.299Z,8.00
2022-08-03T22:54:24.390Z,8.30
2022-08-03T22:56:52.395Z,7.70
2022-08-03T22:59:38.919Z,8.80
2022-08-03T23:02:21.324Z,8.30
2022-08-03T23:04:57.399Z,8.40
2022-08-03T23:07:32.160Z,8.80
2022-08-03T23:10:03.825Z,8.80
2022-08-03T23:12:35.077Z,8.50
2022-08-03T23:15:08.511Z,8.70
2022-08-03T23:17:58.103Z,8.40
2022-08-03T23:20:27.066Z,8.50
2022-08-03T23:22:57.962Z,8.30
2022-08-03T23:25:26.894Z,8.60
2022-08-03T23:28:05.027Z,8.80
2022-08-03T23:30:37.382Z,9.00
2022-08-03T23:33:06.697Z,8.30
2022-08-03T23:36:20.149Z,8.70
2022-08-03T23:38:43.665Z,9.80
2022-08-03T23:41:13.707Z,9.60
2022-08-03T23:43:52.263Z,9.60
2022-08-03T23:46:22.732Z,10.60
2022-08-03T23:48:51.189Z,9.30
2022-08-03T23:51:44.721Z,8.60
2022-08-03T23:54:44.324Z,8.90
2022-08-03T23:57:40.022Z,9.30
